sensor_id;sensor_type;location;lat;lon;timestamp;pressure;altitude;pressure_sealevel;temperature;humidity
42067;BME280;27734;47.028;28.820;2023-07-13T00:00:52;100239.98;;;22.42;64.52
42067;BME280;27734;47.028;28.820;2023-07-13T00:03:40;100237.28;;;22.44;64.61
42067;BME280;27734;47.028;28.820;2023-07-13T00:06:09;100245.30;;;22.44;64.65
42067;BME280;27734;47.028;28.820;2023-07-13T00:08:38;100247.92;;;22.47;64.90
42067;BME280;27734;47.028;28.820;2023-07-13T00:11:06;100241.64;;;22.48;64.91
42067;BME280;27734;47.028;28.820;2023-07-13T00:13:35;100245.22;;;22.49;64.69
42067;BME280;27734;47.028;28.820;2023-07-13T00:16:06;100238.97;;;22.48;64.72
42067;BME280;27734;47.028;28.820;2023-07-13T00:18:35;100245.25;;;22.47;65.44
42067;BME280;27734;47.028;28.820;2023-07-13T00:21:03;100246.15;;;22.46;65.49
42067;BME280;27734;47.028;28.820;2023-07-13T00:23:33;100255.94;;;22.47;65.56
42067;BME280;27734;47.028;28.820;2023-07-13T00:26:02;100248.80;;;22.48;65.94
42067;BME280;27734;47.028;28.820;2023-07-13T00:28:31;100247.92;;;22.47;66.15
42067;BME280;27734;47.028;28.820;2023-07-13T00:31:00;100245.25;;;22.47;65.66
42067;BME280;27734;47.028;28.820;2023-07-13T00:33:29;100236.35;;;22.45;66.26
42067;BME280;27734;47.028;28.820;2023-07-13T00:35:58;100223.95;;;22.42;66.67
42067;BME280;27734;47.028;28.820;2023-07-13T00:38:27;100222.14;;;22.43;66.29
42067;BME280;27734;47.028;28.820;2023-07-13T00:40:56;100218.57;;;22.44;66.11
42067;BME280;27734;47.028;28.820;2023-07-13T00:43:27;100219.41;;;22.46;66.63
42067;BME280;27734;47.028;28.820;2023-07-13T00:46:16;100210.50;;;22.47;66.12
42067;BME280;27734;47.028;28.820;2023-07-13T00:48:47;100201.55;;;22.48;66.65
42067;BME280;27734;47.028;28.820;2023-07-13T00:51:20;100195.33;;;22.48;66.26
42067;BME280;27734;47.028;28.820;2023-07-13T00:53:51;100189.11;;;22.47;66.75
42067;BME280;27734;47.028;28.820;2023-07-13T00:56:21;100190.03;;;22.44;67.57
42067;BME280;27734;47.028;28.820;2023-07-13T00:58:50;100187.39;;;22.43;67.01
42067;BME280;27734;47.028;28.820;2023-07-13T01:01:19;100184.74;;;22.41;67.64
42067;BME280;27734;47.028;28.820;2023-07-13T01:03:48;100177.65;;;22.39;67.76
42067;BME280;27734;47.028;28.820;2023-07-13T01:06:16;100170.59;;;22.36;67.80
42067;BME280;27734;47.028;28.820;2023-07-13T01:08:45;100167.04;;;22.34;67.77
42067;BME280;27734;47.028;28.820;2023-07-13T01:11:19;100158.13;;;22.35;67.77
42067;BME280;27734;47.028;28.820;2023-07-13T01:13:48;100163.50;;;22.34;67.68
42067;BME280;27734;47.028;28.820;2023-07-13T01:16:24;100166.17;;;22.34;67.96
42067;BME280;27734;47.028;28.820;2023-07-13T01:18:53;100168.84;;;22.34;68.35
42067;BME280;27734;47.028;28.820;2023-07-13T01:21:26;100180.38;;;22.36;68.15
42067;BME280;27734;47.028;28.820;2023-07-13T01:23:55;100163.47;;;22.35;68.27
42067;BME280;27734;47.028;28.820;2023-07-13T01:26:24;100160.83;;;22.34;68.72
42067;BME280;27734;47.028;28.820;2023-07-13T01:28:53;100168.00;;;22.32;68.69
42067;BME280;27734;47.028;28.820;2023-07-13T01:31:21;100160.88;;;22.31;68.50
42067;BME280;27734;47.028;28.820;2023-07-13T01:33:50;100163.55;;;22.31;68.08
42067;BME280;27734;47.028;28.820;2023-07-13T01:36:18;100151.05;;;22.30;68.71
42067;BME280;27734;47.028;28.820;2023-07-13T01:38:48;100156.42;;;22.28;68.39
42067;BME280;27734;47.028;28.820;2023-07-13T01:41:17;100160.90;;;22.28;68.81
42067;BME280;27734;47.028;28.820;2023-07-13T01:43:47;100176.06;;;22.27;68.98
42067;BME280;27734;47.028;28.820;2023-07-13T01:46:16;100176.98;;;22.24;68.84
42067;BME280;27734;47.028;28.820;2023-07-13T01:48:44;100187.67;;;22.24;68.65
42067;BME280;27734;47.028;28.820;2023-07-13T01:51:13;100183.23;;;22.23;69.12
42067;BME280;27734;47.028;28.820;2023-07-13T01:53:41;100183.26;;;22.22;69.01
42067;BME280;27734;47.028;28.820;2023-07-13T01:56:10;100187.73;;;22.21;68.71
42067;BME280;27734;47.028;28.820;2023-07-13T01:58:39;100192.20;;;22.21;69.65
42067;BME280;27734;47.028;28.820;2023-07-13T02:01:07;100192.18;;;22.22;69.66
42067;BME280;27734;47.028;28.820;2023-07-13T02:03:36;100193.08;;;22.21;69.09
42067;BME280;27734;47.028;28.820;2023-07-13T02:06:04;100181.54;;;22.19;69.99
42067;BME280;27734;47.028;28.820;2023-07-13T02:08:33;100189.56;;;22.19;69.76
42067;BME280;27734;47.028;28.820;2023-07-13T02:11:03;100190.45;;;22.18;69.85
42067;BME280;27734;47.028;28.820;2023-07-13T02:13:32;100189.56;;;22.19;69.79
42067;BME280;27734;47.028;28.820;2023-07-13T02:16:00;100184.21;;;22.19;70.07
42067;BME280;27734;47.028;28.820;2023-07-13T02:18:29;100184.21;;;22.19;69.46
42067;BME280;27734;47.028;28.820;2023-07-13T02:20:57;100185.93;;;22.22;69.74
42067;BME280;27734;47.028;28.820;2023-07-13T02:23:26;100179.73;;;22.20;70.17
42067;BME280;27734;47.028;28.820;2023-07-13T02:25:56;100179.77;;;22.18;70.41
42067;BME280;27734;47.028;28.820;2023-07-13T02:28:24;100177.09;;;22.18;70.64
42067;BME280;27734;47.028;28.820;2023-07-13T02:30:53;100176.22;;;22.18;69.87
42067;BME280;27734;47.028;28.820;2023-07-13T02:33:22;100179.77;;;22.18;70.45
42067;BME280;27734;47.028;28.820;2023-07-13T02:35:51;100178.89;;;22.18;69.92
42067;BME280;27734;47.028;28.820;2023-07-13T02:38:20;100173.58;;;22.16;70.69
42067;BME280;27734;47.028;28.820;2023-07-13T02:40:48;100175.38;;;22.14;69.86
42067;BME280;27734;47.028;28.820;2023-07-13T02:43:17;100173.63;;;22.13;70.90
42067;BME280;27734;47.028;28.820;2023-07-13T02:45:46;100159.37;;;22.13;70.96
42067;BME280;27734;47.028;28.820;2023-07-13T02:48:15;100171.85;;;22.12;70.50
42067;BME280;27734;47.028;28.820;2023-07-13T02:50:44;100171.88;;;22.11;70.94
42067;BME280;27734;47.028;28.820;2023-07-13T02:53:13;100174.55;;;22.11;71.06
42067;BME280;27734;47.028;28.820;2023-07-13T02:55:42;100169.26;;;22.07;70.75
42067;BME280;27734;47.028;28.820;2023-07-13T02:58:33;100169.31;;;22.04;71.01
42067;BME280;27734;47.028;28.820;2023-07-13T03:01:07;100163.09;;;22.04;71.60
42067;BME280;27734;47.028;28.820;2023-07-13T03:03:37;100170.22;;;22.05;71.54
42067;BME280;27734;47.028;28.820;2023-07-13T03:06:06;100163.99;;;22.03;71.24
42067;BME280;27734;47.028;28.820;2023-07-13T03:08:41;100175.58;;;22.03;71.08
42067;BME280;27734;47.028;28.820;2023-07-13T03:11:12;100169.34;;;22.03;71.03
42067;BME280;27734;47.028;28.820;2023-07-13T03:13:42;100175.61;;;22.02;71.26
42067;BME280;27734;47.028;28.820;2023-07-13T03:16:12;100173.81;;;22.02;71.52
42067;BME280;27734;47.028;28.820;2023-07-13T03:18:43;100171.14;;;22.02;71.84
42067;BME280;27734;47.028;28.820;2023-07-13T03:21:12;100177.35;;;22.03;71.69
42067;BME280;27734;47.028;28.820;2023-07-13T03:23:41;100179.15;;;22.02;72.16
42067;BME280;27734;47.028;28.820;2023-07-13T03:26:12;100169.31;;;22.04;71.42
42067;BME280;27734;47.028;28.820;2023-07-13T03:28:42;100177.30;;;22.06;71.89
42067;BME280;27734;47.028;28.820;2023-07-13T03:31:15;100170.16;;;22.08;71.56
42067;BME280;27734;47.028;28.820;2023-07-13T03:33:44;100179.87;;;22.12;72.14
42067;BME280;27734;47.028;28.820;2023-07-13T03:36:15;100178.92;;;22.16;72.55
42067;BME280;27734;47.028;28.820;2023-07-13T03:38:47;100175.29;;;22.19;72.39
42067;BME280;27734;47.028;28.820;2023-07-13T03:41:19;100173.47;;;22.22;71.93
42067;BME280;27734;47.028;28.820;2023-07-13T03:43:50;100172.52;;;22.25;72.34
42067;BME280;27734;47.028;28.820;2023-07-13T03:46:19;100176.06;;;22.27;72.58
42067;BME280;27734;47.028;28.820;2023-07-13T03:48:49;100184.94;;;22.31;72.23
42067;BME280;27734;47.028;28.820;2023-07-13T03:51:18;100183.95;;;22.36;72.42
42067;BME280;27734;47.028;28.820;2023-07-13T03:53:48;100183.90;;;22.39;72.10
42067;BME280;27734;47.028;28.820;2023-07-13T03:56:18;100184.69;;;22.44;72.69
42067;BME280;27734;47.028;28.820;2023-07-13T03:58:48;100176.59;;;22.49;72.89
42067;BME280;27734;47.028;28.820;2023-07-13T04:01:21;100176.53;;;22.52;73.00
42067;BME280;27734;47.028;28.820;2023-07-13T04:03:50;100175.58;;;22.56;72.37
42067;BME280;27734;47.028;28.820;2023-07-13T04:06:20;100179.06;;;22.60;72.90
42067;BME280;27734;47.028;28.820;2023-07-13T04:08:51;100170.95;;;22.65;72.94
42067;BME280;27734;47.028;28.820;2023-07-13T04:11:22;100173.53;;;22.69;72.88
42067;BME280;27734;47.028;28.820;2023-07-13T04:13:51;100179.70;;;22.73;72.78
42067;BME280;27734;47.028;28.820;2023-07-13T04:16:20;100176.06;;;22.77;72.82
42067;BME280;27734;47.028;28.820;2023-07-13T04:18:50;100184.87;;;22.82;72.47
42067;BME280;27734;47.028;28.820;2023-07-13T04:21:21;100185.64;;;22.87;72.71
42067;BME280;27734;47.028;28.820;2023-07-13T04:23:50;100193.55;;;22.93;72.39
42067;BME280;27734;47.028;28.820;2023-07-13T04:26:18;100191.78;;;22.94;72.52
42067;BME280;27734;47.028;28.820;2023-07-13T04:28:49;100194.33;;;23.00;72.50
42067;BME280;27734;47.028;28.820;2023-07-13T04:31:17;100195.14;;;23.04;72.94
42067;BME280;27734;47.028;28.820;2023-07-13T04:33:46;100207.55;;;23.08;73.01
42067;BME280;27734;47.028;28.820;2023-07-13T04:36:15;100208.39;;;23.11;72.51
42067;BME280;27734;47.028;28.820;2023-07-13T04:38:43;100208.30;;;23.16;72.51
42067;BME280;27734;47.028;28.820;2023-07-13T04:41:12;100205.53;;;23.21;72.89
42067;BME280;27734;47.028;28.820;2023-07-13T04:43:41;100214.36;;;23.24;72.52
42067;BME280;27734;47.028;28.820;2023-07-13T04:46:11;100211.66;;;23.26;72.54
42067;BME280;27734;47.028;28.820;2023-07-13T04:48:43;100218.72;;;23.30;72.62
42067;BME280;27734;47.028;28.820;2023-07-13T04:51:12;100209.72;;;23.32;72.85
42067;BME280;27734;47.028;28.820;2023-07-13T04:53:41;100212.33;;;23.36;72.49
42067;BME280;27734;47.028;28.820;2023-07-13T04:56:09;100207.81;;;23.39;72.56
42067;BME280;27734;47.028;28.820;2023-07-13T04:58:38;100217.48;;;23.45;72.68
42067;BME280;27734;47.028;28.820;2023-07-13T05:01:09;100214.70;;;23.49;72.70
42067;BME280;27734;47.028;28.820;2023-07-13T05:03:40;100219.02;;;23.57;72.80
42067;BME280;27734;47.028;28.820;2023-07-13T05:06:09;100215.41;;;23.59;72.57
42067;BME280;27734;47.028;28.820;2023-07-13T05:08:38;100224.21;;;23.64;72.70
42067;BME280;27734;47.028;28.820;2023-07-13T05:11:07;100224.08;;;23.71;72.68
42067;BME280;27734;47.028;28.820;2023-07-13T05:13:35;100229.29;;;23.77;73.08
42067;BME280;27734;47.028;28.820;2023-07-13T05:16:05;100226.47;;;23.84;72.51
42067;BME280;27734;47.028;28.820;2023-07-13T05:18:35;100225.42;;;23.90;72.32
42067;BME280;27734;47.028;28.820;2023-07-13T05:21:05;100225.27;;;23.96;72.43
42067;BME280;27734;47.028;28.820;2023-07-13T05:23:35;100223.35;;;24.03;72.64
42067;BME280;27734;47.028;28.820;2023-07-13T05:26:04;100222.27;;;24.10;72.54
42067;BME280;27734;47.028;28.820;2023-07-13T05:28:33;100228.38;;;24.17;72.19
42067;BME280;27734;47.028;28.820;2023-07-13T05:31:03;100226.41;;;24.23;72.28
42067;BME280;27734;47.028;28.820;2023-07-13T05:33:31;100237.85;;;24.30;72.13
42067;BME280;27734;47.028;28.820;2023-07-13T05:36:00;100241.25;;;24.37;72.03
42067;BME280;27734;47.028;28.820;2023-07-13T05:38:29;100240.19;;;24.44;72.22
42067;BME280;27734;47.028;28.820;2023-07-13T05:40:58;100242.67;;;24.52;71.95
42067;BME280;27734;47.028;28.820;2023-07-13T05:43:26;100242.50;;;24.60;72.14
42067;BME280;27734;47.028;28.820;2023-07-13T05:45:57;100245.89;;;24.66;72.17
42067;BME280;27734;47.028;28.820;2023-07-13T05:48:26;100244.83;;;24.73;71.51
42067;BME280;27734;47.028;28.820;2023-07-13T05:51:01;100241.98;;;24.80;71.95
42067;BME280;27734;47.028;28.820;2023-07-13T05:53:33;100245.41;;;24.85;71.78
42067;BME280;27734;47.028;28.820;2023-07-13T05:56:04;100237.23;;;24.89;71.04
42067;BME280;27734;47.028;28.820;2023-07-13T05:58:39;100239.74;;;24.96;70.84
42067;BME280;27734;47.028;28.820;2023-07-13T06:01:12;100244.94;;;25.02;70.85
42067;BME280;27734;47.028;28.820;2023-07-13T06:03:48;100237.63;;;25.07;70.70
42067;BME280;27734;47.028;28.820;2023-07-13T06:06:24;100235.67;;;25.14;70.53
42067;BME280;27734;47.028;28.820;2023-07-13T06:08:54;100239.96;;;25.19;69.78
42067;BME280;27734;47.028;28.820;2023-07-13T06:11:27;100241.60;;;25.25;69.38
42067;BME280;27734;47.028;28.820;2023-07-13T06:16:56;100245.70;;;25.38;69.61
42067;BME280;27734;47.028;28.820;2023-07-13T06:19:28;100243.78;;;25.43;69.49
42067;BME280;27734;47.028;28.820;2023-07-13T06:21:57;100257.98;;;25.47;69.36
42067;BME280;27734;47.028;28.820;2023-07-13T06:24:29;100246.33;;;25.48;69.20
42067;BME280;27734;47.028;28.820;2023-07-13T06:27:00;100255.16;;;25.52;68.91
42067;BME280;27734;47.028;28.820;2023-07-13T06:29:34;100255.84;;;25.58;68.87
42067;BME280;27734;47.028;28.820;2023-07-13T06:32:09;100255.62;;;25.66;68.63
42067;BME280;27734;47.028;28.820;2023-07-13T06:34:38;100251.83;;;25.73;68.49
42067;BME280;27734;47.028;28.820;2023-07-13T06:37:07;100254.33;;;25.79;68.18
42067;BME280;27734;47.028;28.820;2023-07-13T06:39:36;100246.89;;;25.88;67.74
42067;BME280;27734;47.028;28.820;2023-07-13T06:42:08;100238.59;;;25.95;67.74
42067;BME280;27734;47.028;28.820;2023-07-13T06:44:37;100243.84;;;26.00;67.07
42067;BME280;27734;47.028;28.820;2023-07-13T06:47:12;100249.95;;;26.05;67.33
42067;BME280;27734;47.028;28.820;2023-07-13T06:49:45;100244.37;;;26.11;67.20
42067;BME280;27734;47.028;28.820;2023-07-13T06:52:13;100239.64;;;26.19;67.31
42067;BME280;27734;47.028;28.820;2023-07-13T06:54:42;100240.20;;;26.29;66.84
42067;BME280;27734;47.028;28.820;2023-07-13T06:57:14;100234.47;;;26.40;66.65
42067;BME280;27734;47.028;28.820;2023-07-13T06:59:44;100233.09;;;26.53;66.41
42067;BME280;27734;47.028;28.820;2023-07-13T07:02:14;100230.08;;;26.63;66.06
42067;BME280;27734;47.028;28.820;2023-07-13T07:04:49;100234.14;;;26.76;65.58
42067;BME280;27734;47.028;28.820;2023-07-13T07:07:23;100239.03;;;26.90;65.83
42067;BME280;27734;47.028;28.820;2023-07-13T07:09:59;100230.63;;;26.99;65.37
42067;BME280;27734;47.028;28.820;2023-07-13T07:12:44;100244.39;;;27.15;65.30
42067;BME280;27734;47.028;28.820;2023-07-13T07:15:18;100244.80;;;27.28;64.40
42067;BME280;27734;47.028;28.820;2023-07-13T07:17:56;100241.80;;;27.37;64.57
42067;BME280;27734;47.028;28.820;2023-07-13T07:20:27;100231.42;;;27.50;63.80
42067;BME280;27734;47.028;28.820;2023-07-13T07:23:02;100250.59;;;27.66;63.47
42067;BME280;27734;47.028;28.820;2023-07-13T07:25:32;100257.61;;;27.92;63.35
42067;BME280;27734;47.028;28.820;2023-07-13T07:28:05;100255.04;;;28.13;62.28
42067;BME280;27734;47.028;28.820;2023-07-13T07:30:34;100257.91;;;28.30;61.49
42067;BME280;27734;47.028;28.820;2023-07-13T07:33:05;100262.66;;;28.46;61.93
42067;BME280;27734;47.028;28.820;2023-07-13T07:35:34;100258.61;;;28.56;61.40
42067;BME280;27734;47.028;28.820;2023-07-13T07:38:04;100254.61;;;28.66;61.00
42067;BME280;27734;47.028;28.820;2023-07-13T07:40:38;100258.34;;;28.84;60.89
42067;BME280;27734;47.028;28.820;2023-07-13T07:43:20;100263.73;;;29.05;60.31
42067;BME280;27734;47.028;28.820;2023-07-13T07:45:52;100263.72;;;29.26;59.59
42067;BME280;27734;47.028;28.820;2023-07-13T07:48:25;100254.05;;;29.40;58.99
42067;BME280;27734;47.028;28.820;2023-07-13T07:50:56;100257.84;;;29.55;58.86
42067;BME280;27734;47.028;28.820;2023-07-13T07:53:26;100257.91;;;29.73;58.62
42067;BME280;27734;47.028;28.820;2023-07-13T07:55:59;100254.87;;;29.81;58.27
42067;BME280;27734;47.028;28.820;2023-07-13T07:58:36;100256.48;;;29.85;58.15
42067;BME280;27734;47.028;28.820;2023-07-13T08:01:05;100251.05;;;30.04;57.70
42067;BME280;27734;47.028;28.820;2023-07-13T08:03:37;100254.22;;;30.31;56.73
42067;BME280;27734;47.028;28.820;2023-07-13T08:06:06;100249.44;;;30.36;56.59
42067;BME280;27734;47.028;28.820;2023-07-13T08:08:36;100252.73;;;30.43;56.66
42067;BME280;27734;47.028;28.820;2023-07-13T08:11:06;100251.63;;;30.64;55.82
42067;BME280;27734;47.028;28.820;2023-07-13T08:13:38;100246.36;;;30.79;55.06
42067;BME280;27734;47.028;28.820;2023-07-13T08:16:08;100253.22;;;31.04;54.41
42067;BME280;27734;47.028;28.820;2023-07-13T08:18:42;100250.47;;;31.21;53.41
42067;BME280;27734;47.028;28.820;2023-07-13T08:21:12;100242.73;;;31.31;52.97
42067;BME280;27734;47.028;28.820;2023-07-13T08:23:43;100265.00;;;31.53;52.39
42067;BME280;27734;47.028;28.820;2023-07-13T08:26:13;100258.89;;;31.66;51.66
42067;BME280;27734;47.028;28.820;2023-07-13T08:28:45;100259.58;;;31.53;52.14
42067;BME280;27734;47.028;28.820;2023-07-13T08:31:14;100254.42;;;31.65;51.13
42067;BME280;27734;47.028;28.820;2023-07-13T08:33:43;100253.73;;;31.77;51.40
42067;BME280;27734;47.028;28.820;2023-07-13T08:36:13;100257.51;;;31.90;50.68
42067;BME280;27734;47.028;28.820;2023-07-13T08:38:44;100260.99;;;31.93;50.06
42067;BME280;27734;47.028;28.820;2023-07-13T08:41:16;100262.83;;;32.08;49.56
42067;BME280;27734;47.028;28.820;2023-07-13T08:43:49;100267.57;;;32.04;49.39
42067;BME280;27734;47.028;28.820;2023-07-13T08:46:21;100261.47;;;32.17;48.69
42067;BME280;27734;47.028;28.820;2023-07-13T08:48:55;100263.02;;;32.21;47.96
42067;BME280;27734;47.028;28.820;2023-07-13T08:51:40;100260.39;;;32.19;48.06
42067;BME280;27734;47.028;28.820;2023-07-13T08:54:26;100257.85;;;32.16;47.72
42067;BME280;27734;47.028;28.820;2023-07-13T08:56:59;100247.80;;;32.18;47.23
42067;BME280;27734;47.028;28.820;2023-07-13T08:59:31;100238.31;;;32.25;47.23
42067;BME280;27734;47.028;28.820;2023-07-13T09:02:23;100244.28;;;32.32;46.41
42067;BME280;27734;47.028;28.820;2023-07-13T09:05:10;100241.11;;;32.40;46.14
42067;BME280;27734;47.028;28.820;2023-07-13T09:07:55;100233.92;;;32.39;46.19
42067;BME280;27734;47.028;28.820;2023-07-13T09:10:30;100233.83;;;32.40;45.50
42067;BME280;27734;47.028;28.820;2023-07-13T09:13:07;100231.11;;;32.40;44.78
42067;BME280;27734;47.028;28.820;2023-07-13T09:15:43;100229.70;;;32.49;44.79
42067;BME280;27734;47.028;28.820;2023-07-13T09:18:17;100228.48;;;32.39;45.03
42067;BME280;27734;47.028;28.820;2023-07-13T09:20:53;100225.59;;;32.42;44.59
42067;BME280;27734;47.028;28.820;2023-07-13T09:23:24;100231.88;;;32.42;44.43
42067;BME280;27734;47.028;28.820;2023-07-13T09:26:05;100240.56;;;32.49;44.22
42067;BME280;27734;47.028;28.820;2023-07-13T09:28:39;100236.36;;;32.43;44.06
42067;BME280;27734;47.028;28.820;2023-07-13T09:31:13;100234.77;;;32.55;44.10
42067;BME280;27734;47.028;28.820;2023-07-13T09:33:44;100238.92;;;32.61;43.92
42067;BME280;27734;47.028;28.820;2023-07-13T09:36:21;100227.11;;;32.62;44.02
42067;BME280;27734;47.028;28.820;2023-07-13T09:38:58;100229.91;;;32.60;43.67
42067;BME280;27734;47.028;28.820;2023-07-13T09:41:39;100232.51;;;32.48;43.39
42067;BME280;27734;47.028;28.820;2023-07-13T09:44:12;100232.06;;;32.39;43.75
42067;BME280;27734;47.028;28.820;2023-07-13T09:46:54;100239.03;;;32.29;43.26
42067;BME280;27734;47.028;28.820;2023-07-13T09:49:25;100228.72;;;32.04;43.36
42067;BME280;27734;47.028;28.820;2023-07-13T09:52:03;100229.48;;;32.06;43.51
42067;BME280;27734;47.028;28.820;2023-07-13T09:54:44;100224.92;;;32.06;43.48
42067;BME280;27734;47.028;28.820;2023-07-13T09:57:24;100228.53;;;32.07;43.24
42067;BME280;27734;47.028;28.820;2023-07-13T09:59:55;100228.72;;;32.04;43.10
42067;BME280;27734;47.028;28.820;2023-07-13T10:02:30;100229.07;;;31.98;43.24
42067;BME280;27734;47.028;28.820;2023-07-13T10:05:05;100223.64;;;31.98;43.19
42067;BME280;27734;47.028;28.820;2023-07-13T10:07:40;100225.55;;;31.96;43.23
42067;BME280;27734;47.028;28.820;2023-07-13T10:10:16;100229.78;;;31.85;43.45
42067;BME280;27734;47.028;28.820;2023-07-13T10:12:47;100219.27;;;31.79;43.20
42067;BME280;27734;47.028;28.820;2023-07-13T10:15:18;100222.59;;;31.84;43.29
42067;BME280;27734;47.028;28.820;2023-07-13T10:17:48;100218.20;;;31.82;43.24
42067;BME280;27734;47.028;28.820;2023-07-13T10:20:18;100218.75;;;31.88;43.35
42067;BME280;27734;47.028;28.820;2023-07-13T10:22:54;100213.47;;;32.01;43.16
42067;BME280;27734;47.028;28.820;2023-07-13T10:25:32;100213.38;;;32.19;43.24
42067;BME280;27734;47.028;28.820;2023-07-13T10:28:20;100202.75;;;32.30;42.65
42067;BME280;27734;47.028;28.820;2023-07-13T10:30:54;100215.83;;;32.23;42.80
42067;BME280;27734;47.028;28.820;2023-07-13T10:33:25;100204.56;;;31.99;42.84
42067;BME280;27734;47.028;28.820;2023-07-13T10:35:59;100206.41;;;31.83;43.07
42067;BME280;27734;47.028;28.820;2023-07-13T10:38:37;100200.45;;;31.92;42.91
42067;BME280;27734;47.028;28.820;2023-07-13T10:41:10;100198.77;;;32.05;42.82
42067;BME280;27734;47.028;28.820;2023-07-13T10:43:43;100202.62;;;32.17;43.13
42067;BME280;27734;47.028;28.820;2023-07-13T10:46:14;100204.61;;;32.30;42.79
42067;BME280;27734;47.028;28.820;2023-07-13T10:48:51;100190.34;;;32.26;42.49
42067;BME280;27734;47.028;28.820;2023-07-13T10:51:38;100199.08;;;32.31;42.51
42067;BME280;27734;47.028;28.820;2023-07-13T10:54:20;100194.52;;;32.32;42.52
42067;BME280;27734;47.028;28.820;2023-07-13T10:57:08;100196.77;;;32.39;42.49
42067;BME280;27734;47.028;28.820;2023-07-13T10:59:47;100205.16;;;32.51;42.31
42067;BME280;27734;47.028;28.820;2023-07-13T11:02:26;100207.79;;;32.52;42.08
42067;BME280;27734;47.028;28.820;2023-07-13T11:04:56;100205.66;;;32.57;42.34
42067;BME280;27734;47.028;28.820;2023-07-13T11:07:28;100199.70;;;32.67;42.28
42067;BME280;27734;47.028;28.820;2023-07-13T11:09:58;100200.58;;;32.82;41.97
42067;BME280;27734;47.028;28.820;2023-07-13T11:15:32;100219.31;;;32.86;41.48
42067;BME280;27734;47.028;28.820;2023-07-13T11:18:21;100211.72;;;32.77;41.78
42067;BME280;27734;47.028;28.820;2023-07-13T11:20:50;100219.40;;;32.85;41.68
42067;BME280;27734;47.028;28.820;2023-07-13T11:23:30;100223.77;;;32.73;41.38
42067;BME280;27734;47.028;28.820;2023-07-13T11:26:03;100209.70;;;32.50;41.66
42067;BME280;27734;47.028;28.820;2023-07-13T11:28:42;100219.05;;;32.60;41.94
42067;BME280;27734;47.028;28.820;2023-07-13T11:31:16;100216.87;;;32.82;41.91
42067;BME280;27734;47.028;28.820;2023-07-13T11:33:56;100209.72;;;32.95;41.80
42067;BME280;27734;47.028;28.820;2023-07-13T11:36:39;100207.19;;;33.06;41.82
42067;BME280;27734;47.028;28.820;2023-07-13T11:39:18;100212.24;;;33.12;41.62
42067;BME280;27734;47.028;28.820;2023-07-13T11:41:53;100204.59;;;33.19;41.39
42067;BME280;27734;47.028;28.820;2023-07-13T11:44:27;100185.06;;;33.12;41.49
42067;BME280;27734;47.028;28.820;2023-07-13T11:47:10;100189.64;;;33.12;41.51
42067;BME280;27734;47.028;28.820;2023-07-13T11:49:44;100173.34;;;32.98;41.23
42067;BME280;27734;47.028;28.820;2023-07-13T11:52:28;100154.90;;;32.88;41.28
42067;BME280;27734;47.028;28.820;2023-07-13T11:55:18;100159.34;;;32.89;41.48
42067;BME280;27734;47.028;28.820;2023-07-13T11:57:51;100148.38;;;32.91;41.70
42067;BME280;27734;47.028;28.820;2023-07-13T12:00:25;100143.55;;;32.96;41.24
42067;BME280;27734;47.028;28.820;2023-07-13T12:02:57;100138.78;;;33.00;41.14
42067;BME280;27734;47.028;28.820;2023-07-13T12:05:29;100148.69;;;33.01;41.32
42067;BME280;27734;47.028;28.820;2023-07-13T12:08:00;100138.78;;;33.00;41.30
42067;BME280;27734;47.028;28.820;2023-07-13T12:10:36;100132.97;;;32.91;40.94
42067;BME280;27734;47.028;28.820;2023-07-13T12:13:08;100122.30;;;32.88;41.28
42067;BME280;27734;47.028;28.820;2023-07-13T12:15:41;100122.30;;;32.88;40.88
42067;BME280;27734;47.028;28.820;2023-07-13T12:18:14;100115.00;;;32.89;40.69
42067;BME280;27734;47.028;28.820;2023-07-13T12:20:55;100125.78;;;32.90;40.34
42067;BME280;27734;47.028;28.820;2023-07-13T12:23:28;100136.55;;;32.92;40.69
42067;BME280;27734;47.028;28.820;2023-07-13T12:26:02;100134.02;;;32.89;40.57
42067;BME280;27734;47.028;28.820;2023-07-13T12:28:36;100139.94;;;32.81;40.35
42067;BME280;27734;47.028;28.820;2023-07-13T12:31:19;100154.10;;;32.72;40.39
42067;BME280;27734;47.028;28.820;2023-07-13T12:34:03;100155.28;;;32.82;40.79
42067;BME280;27734;47.028;28.820;2023-07-13T12:36:38;100159.95;;;32.94;40.62
42067;BME280;27734;47.028;28.820;2023-07-13T12:39:17;100174.68;;;33.05;40.53
42067;BME280;27734;47.028;28.820;2023-07-13T12:41:47;100183.73;;;33.05;40.27
42067;BME280;27734;47.028;28.820;2023-07-13T12:44:31;100187.97;;;33.09;40.17
42067;BME280;27734;47.028;28.820;2023-07-13T12:47:09;100171.38;;;33.14;39.98
42067;BME280;27734;47.028;28.820;2023-07-13T12:49:43;100169.45;;;33.16;40.34
42067;BME280;27734;47.028;28.820;2023-07-13T12:52:19;100162.95;;;33.19;40.02
42067;BME280;27734;47.028;28.820;2023-07-13T12:54:54;100161.70;;;33.24;39.75
42067;BME280;27734;47.028;28.820;2023-07-13T12:57:25;100155.97;;;33.29;40.14
42067;BME280;27734;47.028;28.820;2023-07-13T12:59:59;100149.34;;;33.33;40.01
42067;BME280;27734;47.028;28.820;2023-07-13T13:02:30;100164.49;;;33.37;40.03
42067;BME280;27734;47.028;28.820;2023-07-13T13:04:59;100176.13;;;33.39;39.75
42067;BME280;27734;47.028;28.820;2023-07-13T13:07:28;100179.94;;;33.37;39.96
42067;BME280;27734;47.028;28.820;2023-07-13T13:09:57;100186.94;;;33.26;39.48
42067;BME280;27734;47.028;28.820;2023-07-13T13:12:27;100190.91;;;33.21;39.54